createdAt,value
2019-05-19T00:01:26.639Z,6.33
2019-05-19T00:03:55.316Z,6.40
2019-05-19T00:06:23.910Z,6.57
2019-05-19T00:08:52.390Z,6.43
2019-05-19T00:11:20.898Z,6.30
2019-05-19T00:13:49.419Z,6.43
2019-05-19T00:16:17.945Z,6.23
2019-05-19T00:18:46.465Z,6.23
2019-05-19T00:21:14.952Z,5.57
2019-05-19T00:23:43.456Z,5.77
2019-05-19T00:26:12.037Z,6.30
2019-05-19T00:28:40.604Z,6.70
2019-05-19T00:31:09.130Z,6.43
2019-05-19T00:33:37.667Z,5.77
2019-05-19T00:36:06.241Z,5.70
2019-05-19T00:38:34.724Z,5.67
2019-05-19T00:41:03.310Z,5.40
2019-05-19T00:43:31.887Z,5.20
2019-05-19T00:46:00.678Z,5.53
2019-05-19T00:48:29.238Z,5.30
2019-05-19T00:50:57.819Z,4.97
2019-05-19T00:53:26.388Z,4.70
2019-05-19T00:55:55.819Z,5.60
2019-05-19T00:58:27.259Z,5.53
2019-05-19T01:00:55.752Z,5.30
2019-05-19T01:03:24.257Z,5.50
2019-05-19T01:05:52.760Z,5.70
2019-05-19T01:08:21.265Z,4.93
2019-05-19T01:10:49.812Z,5.30
2019-05-19T01:13:18.350Z,5.40
2019-05-19T01:15:46.841Z,5.20
2019-05-19T01:18:15.365Z,5.40
2019-05-19T01:20:44.035Z,5.83
2019-05-19T01:23:12.690Z,5.70
2019-05-19T01:25:41.242Z,5.80
2019-05-19T01:28:09.718Z,6.10
2019-05-19T01:30:38.349Z,6.23
2019-05-19T01:33:06.852Z,5.97
2019-05-19T01:35:35.373Z,6.17
2019-05-19T01:38:03.871Z,5.80
2019-05-19T01:40:32.467Z,5.87
2019-05-19T01:43:00.967Z,6.77
2019-05-19T01:45:29.539Z,7.10
2019-05-19T01:47:58.059Z,6.60
2019-05-19T01:50:26.618Z,7.37
2019-05-19T01:52:55.117Z,7.20
2019-05-19T01:55:23.637Z,7.30
2019-05-19T01:57:52.134Z,7.73
2019-05-19T02:00:21.686Z,8.17
2019-05-19T02:02:50.204Z,7.90
2019-05-19T02:05:18.857Z,8.10
2019-05-19T02:07:47.361Z,7.57
2019-05-19T02:10:16.123Z,9.03
2019-05-19T02:12:44.724Z,8.93
2019-05-19T02:15:15.075Z,8.57
2019-05-19T02:17:43.562Z,8.87
2019-05-19T02:20:12.496Z,8.57
2019-05-19T02:22:41.005Z,8.40
2019-05-19T02:25:09.973Z,8.80
2019-05-19T02:27:38.471Z,8.27
2019-05-19T02:30:10.467Z,8.90
2019-05-19T02:32:39.102Z,8.57
2019-05-19T02:35:08.201Z,8.30
2019-05-19T02:37:36.858Z,7.67
2019-05-19T02:40:08.920Z,7.30
2019-05-19T02:42:40.448Z,7.23
2019-05-19T02:45:09.946Z,7.37
2019-05-19T02:47:40.673Z,7.40
2019-05-19T02:50:10.188Z,7.50
2019-05-19T02:52:40.897Z,6.93
2019-05-19T02:55:09.593Z,7.27
2019-05-19T02:57:40.402Z,6.90
2019-05-19T03:00:09.566Z,8.07
2019-05-19T03:02:38.086Z,8.10
2019-05-19T03:05:06.935Z,8.50
2019-05-19T03:07:35.381Z,7.73
2019-05-19T03:10:05.000Z,8.10
2019-05-19T03:12:33.478Z,7.17
2019-05-19T03:15:01.921Z,8.67
2019-05-19T03:17:30.383Z,9.23
2019-05-19T03:19:58.879Z,7.53
2019-05-19T03:22:27.366Z,6.40
2019-05-19T03:24:55.836Z,6.20
2019-05-19T03:27:24.329Z,6.13
2019-05-19T03:29:54.431Z,6.80
2019-05-19T03:32:30.255Z,7.37
2019-05-19T03:34:58.734Z,6.90
2019-05-19T03:37:27.151Z,6.40
2019-05-19T03:39:55.641Z,5.97
2019-05-19T03:42:24.107Z,5.60
2019-05-19T03:44:52.605Z,5.40
2019-05-19T03:47:21.051Z,6.17
2019-05-19T03:49:49.557Z,6.00
2019-05-19T03:52:18.125Z,5.63
2019-05-19T03:54:46.617Z,6.57
2019-05-19T03:57:15.121Z,5.50
2019-05-19T03:59:43.586Z,6.30
2019-05-19T04:02:12.099Z,6.40
2019-05-19T04:04:40.590Z,5.57
2019-05-19T04:07:09.061Z,5.00
2019-05-19T04:09:37.554Z,5.47
2019-05-19T04:12:06.008Z,5.17
2019-05-19T04:14:34.483Z,5.03
2019-05-19T04:17:02.952Z,4.97
2019-05-19T04:19:31.433Z,4.87
2019-05-19T04:21:59.920Z,4.33
2019-05-19T04:24:28.401Z,4.53
2019-05-19T04:26:56.873Z,4.10
2019-05-19T04:29:25.352Z,5.07
2019-05-19T04:31:53.869Z,5.93
2019-05-19T04:34:22.361Z,6.00
2019-05-19T04:37:10.285Z,12.83
2019-05-19T04:39:38.765Z,3.30
2019-05-19T04:42:07.257Z,4.50
2019-05-19T04:44:35.713Z,4.20
2019-05-19T04:47:04.188Z,3.50
2019-05-19T04:49:32.656Z,2.77
2019-05-19T04:52:06.690Z,3.43
2019-05-19T04:54:31.340Z,2.90
2019-05-19T04:56:59.758Z,2.90
2019-05-19T04:59:28.217Z,2.80
2019-05-19T05:01:56.693Z,2.40
2019-05-19T05:04:29.148Z,2.73
2019-05-19T05:06:55.452Z,3.00
2019-05-19T05:09:23.949Z,3.20
2019-05-19T05:11:52.436Z,3.20
2019-05-19T05:14:20.919Z,5.30
2019-05-19T05:16:49.406Z,5.93
2019-05-19T05:19:17.884Z,6.30
2019-05-19T05:21:46.354Z,6.07
2019-05-19T05:24:14.837Z,5.97
2019-05-19T05:26:43.315Z,5.10
2019-05-19T05:29:11.812Z,5.27
2019-05-19T05:31:40.271Z,6.83
2019-05-19T05:34:08.764Z,5.80
2019-05-19T05:36:37.262Z,7.40
2019-05-19T05:39:06.800Z,6.53
2019-05-19T05:41:35.459Z,7.00
2019-05-19T05:44:04.010Z,7.60
2019-05-19T05:46:32.465Z,7.03
2019-05-19T05:49:00.960Z,6.63
2019-05-19T05:51:29.439Z,6.77
2019-05-19T05:53:57.939Z,6.60
2019-05-19T05:56:26.398Z,6.97
2019-05-19T05:58:54.866Z,6.50
2019-05-19T06:01:23.364Z,6.13
2019-05-19T06:03:51.808Z,7.10
2019-05-19T06:06:20.269Z,6.20
2019-05-19T06:08:48.760Z,6.53
2019-05-19T06:11:17.222Z,6.33
2019-05-19T06:13:45.809Z,6.07
2019-05-19T06:16:14.388Z,6.93
2019-05-19T06:18:42.880Z,6.93
2019-05-19T06:21:11.422Z,6.23
2019-05-19T06:23:39.908Z,6.10
2019-05-19T06:26:08.399Z,7.03
2019-05-19T06:28:36.848Z,6.43
2019-05-19T06:31:05.339Z,7.83
2019-05-19T06:33:33.883Z,6.47
2019-05-19T06:36:02.346Z,5.90
2019-05-19T06:38:30.842Z,5.70
2019-05-19T06:40:59.394Z,4.93
2019-05-19T06:43:28.062Z,4.70
2019-05-19T06:45:56.500Z,5.10
2019-05-19T06:48:25.028Z,5.17
2019-05-19T06:50:53.528Z,5.10
2019-05-19T06:53:21.999Z,4.93
2019-05-19T06:55:50.496Z,4.87
2019-05-19T06:58:18.945Z,4.87
2019-05-19T07:00:47.408Z,4.80
2019-05-19T07:03:15.976Z,5.60
2019-05-19T07:05:44.447Z,5.00
2019-05-19T07:08:13.023Z,5.17
2019-05-19T07:10:41.501Z,5.23
2019-05-19T07:13:09.976Z,4.90
2019-05-19T07:15:38.438Z,5.50
2019-05-19T07:18:06.919Z,5.10
2019-05-19T07:20:35.404Z,5.07
2019-05-19T07:23:03.926Z,5.10
2019-05-19T07:25:32.397Z,6.30
2019-05-19T07:28:00.899Z,5.20
2019-05-19T07:30:29.381Z,5.00
2019-05-19T07:32:57.833Z,4.33
2019-05-19T07:35:26.360Z,4.87
2019-05-19T07:37:54.857Z,4.93
2019-05-19T07:40:23.419Z,5.17
2019-05-19T07:42:51.894Z,4.90
2019-05-19T07:45:20.587Z,4.87
2019-05-19T07:47:49.065Z,4.47
2019-05-19T07:50:17.520Z,4.30
2019-05-19T07:52:46.008Z,4.67
2019-05-19T07:55:14.801Z,4.90
2019-05-19T07:57:43.262Z,4.47
2019-05-19T08:00:12.516Z,5.43
2019-05-19T08:02:40.982Z,5.20
2019-05-19T08:05:09.867Z,5.53
2019-05-19T08:07:38.396Z,5.77
2019-05-19T08:10:07.651Z,5.37
2019-05-19T08:12:36.133Z,5.50
2019-05-19T08:15:09.381Z,5.80
2019-05-19T08:17:37.903Z,6.10
2019-05-19T08:20:08.048Z,6.23
2019-05-19T08:22:36.554Z,6.87
2019-05-19T08:25:09.315Z,5.80
2019-05-19T08:27:37.791Z,6.30
2019-05-19T08:30:10.215Z,5.40
2019-05-19T08:32:38.670Z,5.03
2019-05-19T08:35:07.893Z,5.20
2019-05-19T08:37:36.380Z,5.30
2019-05-19T08:40:05.806Z,5.27
2019-05-19T08:42:34.285Z,4.73
2019-05-19T08:45:02.853Z,4.87
2019-05-19T08:47:31.336Z,5.67
2019-05-19T08:49:59.826Z,4.77
2019-05-19T08:52:28.308Z,4.90
2019-05-19T08:54:56.787Z,4.50
2019-05-19T08:57:25.343Z,3.93
2019-05-19T08:59:53.865Z,4.43
2019-05-19T09:02:22.335Z,4.60
2019-05-19T09:04:50.825Z,4.27
2019-05-19T09:07:19.414Z,4.07
2019-05-19T09:09:48.053Z,3.90
2019-05-19T09:12:16.566Z,4.33
2019-05-19T09:14:45.053Z,3.93
2019-05-19T09:17:13.550Z,4.00
2019-05-19T09:19:42.043Z,4.40
2019-05-19T09:22:10.504Z,4.17
2019-05-19T09:24:38.957Z,5.00
2019-05-19T09:27:07.443Z,4.97
2019-05-19T09:29:36.038Z,4.90
2019-05-19T09:32:04.579Z,4.80
2019-05-19T09:34:33.204Z,4.70
2019-05-19T09:37:01.664Z,5.50
2019-05-19T09:39:30.228Z,4.30
2019-05-19T09:41:58.793Z,4.13
2019-05-19T09:44:28.087Z,4.37
2019-05-19T09:46:56.568Z,3.70
2019-05-19T09:49:34.206Z,3.73
2019-05-19T09:52:04.226Z,3.80
2019-05-19T09:54:44.014Z,3.20
2019-05-19T09:57:02.981Z,3.50
2019-05-19T09:59:31.629Z,3.37
2019-05-19T10:02:00.115Z,3.50
2019-05-19T10:04:28.686Z,3.03
2019-05-19T10:06:57.229Z,2.03
2019-05-19T10:09:29.041Z,2.60
2019-05-19T10:12:02.517Z,2.63
2019-05-19T10:14:30.994Z,2.83
2019-05-19T10:16:59.520Z,2.47
2019-05-19T10:19:27.992Z,2.50
2019-05-19T10:21:56.533Z,1.90
2019-05-19T10:24:25.053Z,1.90
2019-05-19T10:26:53.505Z,2.20
2019-05-19T10:29:21.987Z,1.93
2019-05-19T10:31:54.231Z,2.10
2019-05-19T10:34:20.797Z,1.90
2019-05-19T10:36:49.315Z,2.63
2019-05-19T10:39:17.804Z,2.60
2019-05-19T10:41:46.236Z,2.50
2019-05-19T10:44:14.729Z,2.30
2019-05-19T10:46:43.209Z,2.60
2019-05-19T10:49:11.673Z,2.37
2019-05-19T10:51:40.142Z,1.97
2019-05-19T10:54:08.722Z,2.30
2019-05-19T10:56:37.206Z,2.17
2019-05-19T10:59:05.667Z,2.10
2019-05-19T11:01:34.179Z,2.20
2019-05-19T11:04:02.735Z,2.20
2019-05-19T11:06:31.190Z,2.20
2019-05-19T11:08:59.696Z,2.07
2019-05-19T11:11:28.193Z,2.07
2019-05-19T11:13:56.763Z,1.80
2019-05-19T11:16:25.222Z,2.10
2019-05-19T11:18:53.724Z,2.50
2019-05-19T11:21:22.236Z,2.80
2019-05-19T11:23:50.840Z,2.30
2019-05-19T11:26:19.261Z,2.17
2019-05-19T11:28:47.862Z,2.40
2019-05-19T11:31:16.304Z,2.00
2019-05-19T11:33:44.781Z,2.20
2019-05-19T11:36:13.345Z,2.10
2019-05-19T11:38:41.819Z,2.20
2019-05-19T11:41:10.290Z,2.10
2019-05-19T11:43:39.332Z,2.30
2019-05-19T11:46:07.794Z,1.93
2019-05-19T11:48:36.248Z,1.90
2019-05-19T11:51:04.717Z,1.90
2019-05-19T11:53:33.214Z,1.70
2019-05-19T11:56:07.165Z,1.50
2019-05-19T11:58:31.947Z,1.87
2019-05-19T12:01:00.442Z,1.57
2019-05-19T12:03:28.909Z,2.10
2019-05-19T12:05:57.387Z,2.00
2019-05-19T12:08:25.939Z,2.10
2019-05-19T12:10:54.467Z,1.73
2019-05-19T12:13:22.937Z,1.53
2019-05-19T12:15:51.520Z,1.47
2019-05-19T12:18:19.961Z,1.63
2019-05-19T12:20:48.539Z,1.70
2019-05-19T12:23:16.989Z,2.10
2019-05-19T12:25:45.469Z,2.10
2019-05-19T12:28:13.968Z,1.83
2019-05-19T12:30:42.431Z,1.80
2019-05-19T12:33:10.927Z,1.60
2019-05-19T12:35:39.407Z,1.90
2019-05-19T12:38:07.911Z,1.60
2019-05-19T12:40:36.406Z,1.50
2019-05-19T12:43:05.067Z,1.77
2019-05-19T12:45:33.580Z,1.70
2019-05-19T12:48:02.312Z,2.00
2019-05-19T12:50:30.940Z,1.80
2019-05-19T12:52:59.437Z,1.67
2019-05-19T12:55:27.935Z,1.70
2019-05-19T12:57:56.565Z,1.77
2019-05-19T13:00:25.069Z,1.60
2019-05-19T13:02:53.590Z,1.70
2019-05-19T13:05:22.285Z,1.70
2019-05-19T13:07:50.862Z,1.90
2019-05-19T13:10:19.419Z,1.63
2019-05-19T13:12:47.957Z,1.60
2019-05-19T13:15:16.831Z,2.07
2019-05-19T13:17:45.342Z,1.90
2019-05-19T13:20:14.213Z,1.67
2019-05-19T13:22:42.697Z,1.87
2019-05-19T13:25:11.302Z,1.80
2019-05-19T13:27:39.787Z,1.70
2019-05-19T13:30:08.534Z,2.00
2019-05-19T13:32:37.110Z,1.70
2019-05-19T13:35:07.246Z,2.10
2019-05-19T13:37:35.738Z,1.63
2019-05-19T13:40:05.789Z,1.90
2019-05-19T13:42:34.314Z,2.13
2019-05-19T13:45:02.868Z,2.30
2019-05-19T13:47:31.413Z,2.20
2019-05-19T13:50:00.017Z,2.33
2019-05-19T13:52:28.557Z,1.90
2019-05-19T13:54:57.083Z,2.37
2019-05-19T13:57:25.580Z,2.20
2019-05-19T13:59:54.105Z,2.00
2019-05-19T14:02:22.630Z,2.00
2019-05-19T14:04:51.254Z,2.10
2019-05-19T14:07:19.746Z,1.93
2019-05-19T14:09:48.277Z,2.00
2019-05-19T14:12:16.772Z,2.00
2019-05-19T14:14:45.398Z,2.07
2019-05-19T14:17:13.977Z,1.77
2019-05-19T14:19:42.453Z,1.90
2019-05-19T14:22:10.989Z,1.90
2019-05-19T14:24:39.502Z,2.00
2019-05-19T14:27:08.073Z,2.07
2019-05-19T14:29:36.588Z,2.00
2019-05-19T14:32:05.087Z,2.10
2019-05-19T14:34:33.631Z,1.80
2019-05-19T14:37:02.200Z,2.33
2019-05-19T14:39:30.710Z,2.40
2019-05-19T14:42:00.842Z,2.20
2019-05-19T14:44:29.396Z,2.30
2019-05-19T14:46:57.921Z,2.60
2019-05-19T14:49:26.403Z,2.53
2019-05-19T14:51:54.894Z,2.20
2019-05-19T14:54:23.572Z,2.00
2019-05-19T14:56:52.062Z,1.90
2019-05-19T14:59:20.575Z,2.20
2019-05-19T15:01:49.112Z,2.40
2019-05-19T15:04:17.604Z,1.90
2019-05-19T15:06:46.162Z,1.80
2019-05-19T15:09:14.677Z,2.10
2019-05-19T15:11:43.161Z,1.80
2019-05-19T15:14:11.701Z,2.03
2019-05-19T15:16:40.163Z,1.90
2019-05-19T15:19:08.636Z,2.03
2019-05-19T15:21:37.159Z,2.07
2019-05-19T15:24:05.667Z,2.10
2019-05-19T15:26:34.162Z,2.67
2019-05-19T15:29:02.643Z,2.40
2019-05-19T15:31:31.163Z,2.10
2019-05-19T15:33:59.648Z,1.83
2019-05-19T15:36:28.174Z,2.20
2019-05-19T15:38:56.706Z,1.70
2019-05-19T15:41:25.362Z,1.77
2019-05-19T15:43:54.017Z,1.90
2019-05-19T15:46:22.553Z,2.00
2019-05-19T15:48:51.032Z,2.20
2019-05-19T15:51:28.458Z,2.40
2019-05-19T15:53:49.793Z,2.20
2019-05-19T15:56:18.377Z,2.20
2019-05-19T15:58:47.178Z,2.33
2019-05-19T16:01:15.679Z,2.50
2019-05-19T16:03:44.189Z,2.40
2019-05-19T16:06:12.695Z,2.70
2019-05-19T16:08:41.195Z,2.83
2019-05-19T16:11:09.867Z,2.80
2019-05-19T16:13:38.419Z,2.63
2019-05-19T16:16:06.878Z,2.77
2019-05-19T16:18:35.388Z,3.37
2019-05-19T16:21:04.090Z,3.10
2019-05-19T16:23:32.582Z,2.80
2019-05-19T16:26:01.154Z,2.70
2019-05-19T16:28:30.977Z,2.33
2019-05-19T16:30:59.771Z,2.57
2019-05-19T16:33:28.437Z,2.43
2019-05-19T16:35:57.107Z,2.90
2019-05-19T16:38:25.610Z,2.60
2019-05-19T16:40:54.175Z,2.47
2019-05-19T16:43:22.693Z,2.67
2019-05-19T16:45:51.193Z,2.93
2019-05-19T16:48:19.724Z,3.07
2019-05-19T16:50:48.249Z,2.60
2019-05-19T16:53:16.793Z,2.70
2019-05-19T16:55:45.356Z,3.00
2019-05-19T16:58:20.990Z,2.90
2019-05-19T17:00:44.740Z,3.03
2019-05-19T17:03:13.227Z,3.93
2019-05-19T17:05:41.754Z,3.10
2019-05-19T17:08:10.342Z,3.47
2019-05-19T17:10:38.952Z,3.47
2019-05-19T17:13:07.453Z,3.97
2019-05-19T17:15:36.113Z,3.97
2019-05-19T17:18:07.997Z,4.07
2019-05-19T17:20:35.171Z,3.60
2019-05-19T17:23:03.673Z,4.00
2019-05-19T17:25:32.183Z,3.67
2019-05-19T17:28:00.939Z,3.37
2019-05-19T17:30:29.515Z,4.03
2019-05-19T17:32:58.482Z,3.83
2019-05-19T17:35:27.213Z,5.80
2019-05-19T17:37:55.717Z,4.00
2019-05-19T17:40:24.287Z,4.00
2019-05-19T17:42:52.798Z,4.13
2019-05-19T17:45:21.438Z,3.70
2019-05-19T17:47:53.210Z,4.00
2019-05-19T17:50:32.007Z,4.50
2019-05-19T17:53:00.784Z,3.83
2019-05-19T17:55:29.965Z,3.83
2019-05-19T17:57:58.806Z,3.83
2019-05-19T18:00:44.406Z,3.53
2019-05-19T18:03:13.119Z,3.70
2019-05-19T18:05:41.611Z,4.60
2019-05-19T18:08:10.230Z,4.40
2019-05-19T18:10:38.892Z,5.87
2019-05-19T18:13:07.613Z,5.00
2019-05-19T18:15:36.941Z,4.90
2019-05-19T18:18:05.501Z,4.57
2019-05-19T18:20:33.983Z,4.30
2019-05-19T18:23:02.713Z,4.50
2019-05-19T18:25:31.274Z,4.67
2019-05-19T18:27:59.775Z,4.67
2019-05-19T18:30:28.260Z,4.50
2019-05-19T18:32:56.923Z,4.40
2019-05-19T18:35:25.435Z,3.90
2019-05-19T18:37:53.944Z,3.93
2019-05-19T18:40:22.577Z,3.97
2019-05-19T18:42:51.189Z,3.90
2019-05-19T18:45:19.831Z,3.43
2019-05-19T18:47:48.350Z,3.80
2019-05-19T18:50:16.981Z,4.93
2019-05-19T18:52:45.502Z,8.67
2019-05-19T18:55:14.082Z,7.70
2019-05-19T18:57:42.632Z,5.40
2019-05-19T19:00:11.545Z,3.50
2019-05-19T19:02:40.498Z,3.10
2019-05-19T19:05:09.242Z,3.67
2019-05-19T19:07:48.484Z,3.60
2019-05-19T19:10:17.124Z,3.90
2019-05-19T19:12:45.796Z,3.33
2019-05-19T19:15:14.736Z,3.13
2019-05-19T19:17:43.393Z,3.60
2019-05-19T19:20:12.141Z,4.00
2019-05-19T19:22:40.652Z,4.00
2019-05-19T19:25:09.274Z,4.00
2019-05-19T19:27:37.825Z,3.50
2019-05-19T19:30:07.850Z,2.80
2019-05-19T19:32:36.426Z,2.47
2019-05-19T19:35:06.928Z,2.70
2019-05-19T19:37:35.417Z,2.30
2019-05-19T19:40:05.787Z,2.90
2019-05-19T19:42:34.301Z,2.87
2019-05-19T19:45:02.905Z,2.47
2019-05-19T19:47:31.453Z,2.53
2019-05-19T19:49:59.991Z,2.77
2019-05-19T19:52:28.589Z,3.00
2019-05-19T19:54:57.140Z,2.37
2019-05-19T19:57:25.628Z,2.90
2019-05-19T19:59:54.121Z,3.10
2019-05-19T20:02:22.658Z,4.77
2019-05-19T20:04:51.167Z,3.67
2019-05-19T20:07:19.822Z,3.20
2019-05-19T20:09:48.371Z,3.43
2019-05-19T20:12:16.873Z,2.80
2019-05-19T20:14:45.394Z,2.70
2019-05-19T20:17:13.890Z,2.50
2019-05-19T20:19:42.392Z,2.70
2019-05-19T20:22:10.899Z,3.00
2019-05-19T20:24:39.445Z,3.10
2019-05-19T20:27:08.014Z,2.90
2019-05-19T20:29:36.527Z,2.60
2019-05-19T20:32:05.298Z,2.50
2019-05-19T20:34:33.866Z,3.30
2019-05-19T20:37:02.388Z,3.87
2019-05-19T20:39:30.881Z,3.83
2019-05-19T20:41:59.387Z,3.67
2019-05-19T20:44:27.855Z,3.90
2019-05-19T20:46:56.396Z,3.57
2019-05-19T20:49:24.905Z,3.17
2019-05-19T20:51:53.480Z,4.30
2019-05-19T20:54:22.088Z,2.53
2019-05-19T20:56:50.585Z,2.50
2019-05-19T20:59:19.159Z,2.63
2019-05-19T21:01:47.658Z,2.70
2019-05-19T21:04:16.323Z,2.50
2019-05-19T21:06:44.805Z,2.63
2019-05-19T21:09:13.313Z,2.60
2019-05-19T21:11:42.091Z,2.43
2019-05-19T21:14:10.579Z,2.60
2019-05-19T21:16:39.062Z,2.87
2019-05-19T21:19:07.587Z,3.00
2019-05-19T21:21:36.071Z,2.87
2019-05-19T21:24:04.641Z,2.80
2019-05-19T21:26:33.231Z,2.97
2019-05-19T21:29:01.905Z,2.90
2019-05-19T21:31:30.425Z,3.47
2019-05-19T21:33:58.929Z,3.67
2019-05-19T21:36:27.802Z,3.70
2019-05-19T21:38:56.280Z,3.40
2019-05-19T21:41:24.764Z,3.40
2019-05-19T21:43:53.288Z,4.23
2019-05-19T21:46:22.116Z,3.60
2019-05-19T21:48:50.607Z,3.70
2019-05-19T21:51:19.106Z,3.90
2019-05-19T21:53:48.661Z,4.13
2019-05-19T21:56:17.173Z,3.90
2019-05-19T21:58:45.687Z,4.13
2019-05-19T22:01:22.817Z,3.77
2019-05-19T22:03:44.472Z,4.23
2019-05-19T22:06:13.057Z,3.87
2019-05-19T22:08:41.623Z,3.50
2019-05-19T22:11:10.135Z,3.07
2019-05-19T22:13:38.975Z,2.73
2019-05-19T22:16:12.872Z,2.23
2019-05-19T22:18:37.715Z,2.40
2019-05-19T22:21:06.294Z,2.13
2019-05-19T22:23:34.795Z,2.17
2019-05-19T22:26:03.330Z,2.20
2019-05-19T22:28:31.822Z,2.30
2019-05-19T22:31:00.317Z,2.40
2019-05-19T22:33:29.004Z,2.67
2019-05-19T22:35:57.499Z,2.30
2019-05-19T22:38:25.969Z,2.27
2019-05-19T22:40:54.490Z,2.10
2019-05-19T22:43:23.026Z,2.83
2019-05-19T22:45:51.552Z,2.60
2019-05-19T22:48:20.158Z,2.80
2019-05-19T22:50:48.643Z,2.30
2019-05-19T22:53:17.141Z,2.43
2019-05-19T22:55:45.648Z,2.67
2019-05-19T22:58:14.144Z,2.60
2019-05-19T23:00:42.776Z,2.50
2019-05-19T23:03:11.280Z,2.80
2019-05-19T23:05:39.783Z,2.70
2019-05-19T23:08:08.476Z,2.40
2019-05-19T23:10:36.993Z,3.33
2019-05-19T23:13:08.180Z,2.83
2019-05-19T23:15:35.821Z,3.00
2019-05-19T23:18:04.338Z,2.87
2019-05-19T23:20:32.897Z,2.83
2019-05-19T23:23:01.481Z,2.47
2019-05-19T23:25:29.985Z,3.17
2019-05-19T23:27:58.516Z,2.73
2019-05-19T23:30:27.028Z,2.70
2019-05-19T23:32:55.523Z,2.83
2019-05-19T23:35:24.056Z,2.80
2019-05-19T23:37:52.616Z,2.87
2019-05-19T23:40:21.112Z,3.50
2019-05-19T23:42:49.605Z,3.13
2019-05-19T23:45:18.367Z,2.77
2019-05-19T23:47:46.865Z,2.90
2019-05-19T23:50:15.520Z,2.50
2019-05-19T23:52:44.022Z,3.20
2019-05-19T23:55:12.668Z,3.80
2019-05-19T23:57:41.178Z,4.83
